sensor_id;sensor_type;location;lat;lon;timestamp;P1;durP1;ratioP1;P2;durP2;ratioP2
1414;SDS011;702;49.466;11.086;2023-06-10T00:01:44;6.00;;;5.47;;
1414;SDS011;702;49.466;11.086;2023-06-10T00:04:12;7.50;;;6.60;;
1414;SDS011;702;49.466;11.086;2023-06-10T00:06:40;7.70;;;6.20;;
1414;SDS011;702;49.466;11.086;2023-06-10T00:09:09;7.67;;;5.73;;
1414;SDS011;702;49.466;11.086;2023-06-10T00:11:36;7.63;;;6.10;;
1414;SDS011;702;49.466;11.086;2023-06-10T00:14:06;7.00;;;6.17;;
1414;SDS011;702;49.466;11.086;2023-06-10T00:16:34;6.30;;;5.40;;
1414;SDS011;702;49.466;11.086;2023-06-10T00:19:01;6.60;;;5.90;;
1414;SDS011;702;49.466;11.086;2023-06-10T00:21:29;5.97;;;5.47;;
1414;SDS011;702;49.466;11.086;2023-06-10T00:24:02;6.97;;;6.17;;
1414;SDS011;702;49.466;11.086;2023-06-10T00:26:31;6.00;;;5.43;;
1414;SDS011;702;49.466;11.086;2023-06-10T00:28:59;6.20;;;5.40;;
1414;SDS011;702;49.466;11.086;2023-06-10T00:31:28;6.63;;;5.93;;
1414;SDS011;702;49.466;11.086;2023-06-10T00:33:56;5.60;;;5.10;;
1414;SDS011;702;49.466;11.086;2023-06-10T00:36:24;6.40;;;5.63;;
1414;SDS011;702;49.466;11.086;2023-06-10T00:38:51;6.43;;;5.83;;
1414;SDS011;702;49.466;11.086;2023-06-10T00:41:19;6.80;;;6.10;;
1414;SDS011;702;49.466;11.086;2023-06-10T00:43:46;5.67;;;5.17;;
1414;SDS011;702;49.466;11.086;2023-06-10T00:46:14;6.87;;;6.17;;
1414;SDS011;702;49.466;11.086;2023-06-10T00:48:43;5.80;;;5.20;;
1414;SDS011;702;49.466;11.086;2023-06-10T00:51:12;6.63;;;6.03;;
1414;SDS011;702;49.466;11.086;2023-06-10T00:53:41;6.83;;;6.10;;
1414;SDS011;702;49.466;11.086;2023-06-10T00:56:08;6.87;;;6.17;;
1414;SDS011;702;49.466;11.086;2023-06-10T00:58:36;6.33;;;5.73;;
1414;SDS011;702;49.466;11.086;2023-06-10T01:01:03;6.53;;;5.93;;
1414;SDS011;702;49.466;11.086;2023-06-10T01:03:30;6.33;;;5.73;;
1414;SDS011;702;49.466;11.086;2023-06-10T01:06:06;7.00;;;6.30;;
1414;SDS011;702;49.466;11.086;2023-06-10T01:08:45;5.93;;;5.27;;
1414;SDS011;702;49.466;11.086;2023-06-10T01:11:28;6.57;;;5.93;;
1414;SDS011;702;49.466;11.086;2023-06-10T01:14:04;7.07;;;5.27;;
1414;SDS011;702;49.466;11.086;2023-06-10T01:16:32;7.20;;;6.37;;
1414;SDS011;702;49.466;11.086;2023-06-10T01:19:01;7.60;;;6.67;;
1414;SDS011;702;49.466;11.086;2023-06-10T01:21:30;5.90;;;5.40;;
1414;SDS011;702;49.466;11.086;2023-06-10T01:23:57;6.77;;;6.07;;
1414;SDS011;702;49.466;11.086;2023-06-10T01:26:25;6.80;;;5.97;;
1414;SDS011;702;49.466;11.086;2023-06-10T01:28:58;7.83;;;7.00;;
1414;SDS011;702;49.466;11.086;2023-06-10T01:31:34;8.90;;;7.23;;
1414;SDS011;702;49.466;11.086;2023-06-10T01:34:09;7.80;;;6.13;;
1414;SDS011;702;49.466;11.086;2023-06-10T01:36:41;7.23;;;6.53;;
1414;SDS011;702;49.466;11.086;2023-06-10T01:39:12;9.80;;;7.23;;
1414;SDS011;702;49.466;11.086;2023-06-10T01:41:43;8.73;;;7.50;;
1414;SDS011;702;49.466;11.086;2023-06-10T01:44:10;11.33;;;7.60;;
1414;SDS011;702;49.466;11.086;2023-06-10T01:46:38;8.50;;;7.60;;
1414;SDS011;702;49.466;11.086;2023-06-10T01:49:05;9.23;;;8.27;;
1414;SDS011;702;49.466;11.086;2023-06-10T01:51:33;11.13;;;8.00;;
1414;SDS011;702;49.466;11.086;2023-06-10T01:54:02;8.20;;;7.43;;
1414;SDS011;702;49.466;11.086;2023-06-10T01:56:29;9.50;;;7.77;;
1414;SDS011;702;49.466;11.086;2023-06-10T01:58:56;7.73;;;6.93;;
1414;SDS011;702;49.466;11.086;2023-06-10T02:01:24;8.27;;;7.47;;
1414;SDS011;702;49.466;11.086;2023-06-10T02:03:51;7.93;;;7.13;;
1414;SDS011;702;49.466;11.086;2023-06-10T02:06:19;7.97;;;7.17;;
1414;SDS011;702;49.466;11.086;2023-06-10T02:08:46;8.60;;;7.80;;
1414;SDS011;702;49.466;11.086;2023-06-10T02:11:15;9.50;;;7.50;;
1414;SDS011;702;49.466;11.086;2023-06-10T02:13:42;9.43;;;8.30;;
1414;SDS011;702;49.466;11.086;2023-06-10T02:16:10;9.93;;;7.53;;
1414;SDS011;702;49.466;11.086;2023-06-10T02:18:38;8.90;;;7.80;;
1414;SDS011;702;49.466;11.086;2023-06-10T02:21:08;8.60;;;7.80;;
1414;SDS011;702;49.466;11.086;2023-06-10T02:23:35;7.63;;;6.83;;
1414;SDS011;702;49.466;11.086;2023-06-10T02:26:02;9.33;;;8.03;;
1414;SDS011;702;49.466;11.086;2023-06-10T02:28:31;9.60;;;8.03;;
1414;SDS011;702;49.466;11.086;2023-06-10T02:30:58;9.63;;;8.37;;
1414;SDS011;702;49.466;11.086;2023-06-10T02:33:26;8.77;;;7.07;;
1414;SDS011;702;49.466;11.086;2023-06-10T02:35:53;7.33;;;6.63;;
1414;SDS011;702;49.466;11.086;2023-06-10T02:38:21;8.67;;;7.03;;
1414;SDS011;702;49.466;11.086;2023-06-10T02:40:49;9.37;;;7.70;;
1414;SDS011;702;49.466;11.086;2023-06-10T02:43:16;8.40;;;6.97;;
1414;SDS011;702;49.466;11.086;2023-06-10T02:45:44;8.20;;;6.47;;
1414;SDS011;702;49.466;11.086;2023-06-10T02:48:11;8.83;;;7.10;;
1414;SDS011;702;49.466;11.086;2023-06-10T02:50:39;9.37;;;7.93;;
1414;SDS011;702;49.466;11.086;2023-06-10T02:53:06;8.57;;;7.70;;
1414;SDS011;702;49.466;11.086;2023-06-10T02:55:33;8.33;;;7.37;;
1414;SDS011;702;49.466;11.086;2023-06-10T02:58:00;8.57;;;7.70;;
1414;SDS011;702;49.466;11.086;2023-06-10T03:00:28;8.10;;;6.73;;
1414;SDS011;702;49.466;11.086;2023-06-10T03:02:57;8.50;;;7.30;;
1414;SDS011;702;49.466;11.086;2023-06-10T03:05:28;11.33;;;6.70;;
1414;SDS011;702;49.466;11.086;2023-06-10T03:07:56;8.70;;;7.77;;
1414;SDS011;702;49.466;11.086;2023-06-10T03:10:24;9.67;;;7.10;;
1414;SDS011;702;49.466;11.086;2023-06-10T03:12:52;9.50;;;7.80;;
1414;SDS011;702;49.466;11.086;2023-06-10T03:15:19;7.80;;;6.70;;
1414;SDS011;702;49.466;11.086;2023-06-10T03:17:46;9.20;;;7.20;;
1414;SDS011;702;49.466;11.086;2023-06-10T03:20:15;8.07;;;7.00;;
1414;SDS011;702;49.466;11.086;2023-06-10T03:22:43;10.07;;;8.23;;
1414;SDS011;702;49.466;11.086;2023-06-10T03:25:10;9.10;;;6.57;;
1414;SDS011;702;49.466;11.086;2023-06-10T03:27:39;10.30;;;7.73;;
1414;SDS011;702;49.466;11.086;2023-06-10T03:30:06;7.93;;;6.63;;
1414;SDS011;702;49.466;11.086;2023-06-10T03:32:35;8.60;;;7.70;;
1414;SDS011;702;49.466;11.086;2023-06-10T03:35:02;10.17;;;7.80;;
1414;SDS011;702;49.466;11.086;2023-06-10T03:37:33;7.50;;;6.80;;
1414;SDS011;702;49.466;11.086;2023-06-10T03:40:00;7.47;;;6.70;;
1414;SDS011;702;49.466;11.086;2023-06-10T03:42:30;10.23;;;7.30;;
1414;SDS011;702;49.466;11.086;2023-06-10T03:44:57;8.37;;;6.60;;
1414;SDS011;702;49.466;11.086;2023-06-10T03:47:24;7.20;;;6.50;;
1414;SDS011;702;49.466;11.086;2023-06-10T03:49:52;6.40;;;5.80;;
1414;SDS011;702;49.466;11.086;2023-06-10T03:52:19;8.87;;;6.30;;
1414;SDS011;702;49.466;11.086;2023-06-10T03:54:47;7.30;;;6.60;;
1414;SDS011;702;49.466;11.086;2023-06-10T03:57:15;8.67;;;7.03;;
1414;SDS011;702;49.466;11.086;2023-06-10T03:59:42;7.33;;;6.63;;
1414;SDS011;702;49.466;11.086;2023-06-10T04:02:09;8.73;;;6.60;;
1414;SDS011;702;49.466;11.086;2023-06-10T04:04:36;8.27;;;7.47;;
1414;SDS011;702;49.466;11.086;2023-06-10T04:07:03;8.40;;;7.60;;
1414;SDS011;702;49.466;11.086;2023-06-10T04:09:31;8.40;;;7.53;;
1414;SDS011;702;49.466;11.086;2023-06-10T04:12:00;8.50;;;6.80;;
1414;SDS011;702;49.466;11.086;2023-06-10T04:14:31;10.30;;;7.27;;
1414;SDS011;702;49.466;11.086;2023-06-10T04:16:58;8.60;;;7.77;;
1414;SDS011;702;49.466;11.086;2023-06-10T04:19:25;7.50;;;6.50;;
1414;SDS011;702;49.466;11.086;2023-06-10T04:21:53;7.50;;;6.80;;
1414;SDS011;702;49.466;11.086;2023-06-10T04:24:20;8.07;;;6.63;;
1414;SDS011;702;49.466;11.086;2023-06-10T04:26:48;7.50;;;6.80;;
1414;SDS011;702;49.466;11.086;2023-06-10T04:29:16;7.47;;;6.10;;
1414;SDS011;702;49.466;11.086;2023-06-10T04:31:44;7.30;;;6.60;;
1414;SDS011;702;49.466;11.086;2023-06-10T04:34:12;6.57;;;5.97;;
1414;SDS011;702;49.466;11.086;2023-06-10T04:36:39;7.23;;;6.03;;
1414;SDS011;702;49.466;11.086;2023-06-10T04:39:08;6.63;;;5.90;;
1414;SDS011;702;49.466;11.086;2023-06-10T04:41:35;8.67;;;7.20;;
1414;SDS011;702;49.466;11.086;2023-06-10T04:44:02;6.73;;;6.03;;
1414;SDS011;702;49.466;11.086;2023-06-10T04:46:31;7.63;;;6.97;;
1414;SDS011;702;49.466;11.086;2023-06-10T04:48:58;6.90;;;6.30;;
1414;SDS011;702;49.466;11.086;2023-06-10T04:51:25;7.60;;;6.43;;
1414;SDS011;702;49.466;11.086;2023-06-10T04:53:54;7.57;;;6.90;;
1414;SDS011;702;49.466;11.086;2023-06-10T04:56:21;7.43;;;6.80;;
1414;SDS011;702;49.466;11.086;2023-06-10T04:58:49;6.83;;;6.27;;
1414;SDS011;702;49.466;11.086;2023-06-10T05:01:16;6.73;;;6.07;;
1414;SDS011;702;49.466;11.086;2023-06-10T05:03:45;7.27;;;6.57;;
1414;SDS011;702;49.466;11.086;2023-06-10T05:06:12;7.03;;;6.37;;
1414;SDS011;702;49.466;11.086;2023-06-10T05:08:39;6.70;;;6.10;;
1414;SDS011;702;49.466;11.086;2023-06-10T05:11:06;6.27;;;5.70;;
1414;SDS011;702;49.466;11.086;2023-06-10T05:13:34;6.93;;;6.33;;
1414;SDS011;702;49.466;11.086;2023-06-10T05:16:01;6.70;;;5.93;;
1414;SDS011;702;49.466;11.086;2023-06-10T05:18:29;6.80;;;6.13;;
1414;SDS011;702;49.466;11.086;2023-06-10T05:20:57;6.60;;;6.00;;
1414;SDS011;702;49.466;11.086;2023-06-10T05:23:25;6.90;;;6.20;;
1414;SDS011;702;49.466;11.086;2023-06-10T05:25:52;6.27;;;5.67;;
1414;SDS011;702;49.466;11.086;2023-06-10T05:28:20;5.97;;;5.47;;
1414;SDS011;702;49.466;11.086;2023-06-10T05:30:47;7.27;;;6.53;;
1414;SDS011;702;49.466;11.086;2023-06-10T05:33:14;5.90;;;5.40;;
1414;SDS011;702;49.466;11.086;2023-06-10T05:35:42;6.40;;;5.80;;
1414;SDS011;702;49.466;11.086;2023-06-10T05:38:10;6.00;;;5.50;;
1414;SDS011;702;49.466;11.086;2023-06-10T05:40:38;6.20;;;5.60;;
1414;SDS011;702;49.466;11.086;2023-06-10T05:43:05;6.40;;;5.80;;
1414;SDS011;702;49.466;11.086;2023-06-10T05:45:33;5.77;;;5.27;;
1414;SDS011;702;49.466;11.086;2023-06-10T05:48:00;5.53;;;5.03;;
1414;SDS011;702;49.466;11.086;2023-06-10T05:50:27;6.80;;;6.10;;
1414;SDS011;702;49.466;11.086;2023-06-10T05:52:54;6.90;;;6.30;;
1414;SDS011;702;49.466;11.086;2023-06-10T05:55:24;6.43;;;5.93;;
1414;SDS011;702;49.466;11.086;2023-06-10T05:57:57;5.43;;;4.93;;
1414;SDS011;702;49.466;11.086;2023-06-10T06:00:25;6.10;;;5.60;;
1414;SDS011;702;49.466;11.086;2023-06-10T06:02:52;6.60;;;6.00;;
1414;SDS011;702;49.466;11.086;2023-06-10T06:05:21;6.10;;;5.50;;
1414;SDS011;702;49.466;11.086;2023-06-10T06:07:48;6.50;;;5.90;;
1414;SDS011;702;49.466;11.086;2023-06-10T06:10:16;6.27;;;5.67;;
1414;SDS011;702;49.466;11.086;2023-06-10T06:12:45;6.90;;;5.83;;
1414;SDS011;702;49.466;11.086;2023-06-10T06:15:13;6.80;;;6.20;;
1414;SDS011;702;49.466;11.086;2023-06-10T06:17:40;7.10;;;6.40;;
1414;SDS011;702;49.466;11.086;2023-06-10T06:20:07;7.30;;;6.60;;
1414;SDS011;702;49.466;11.086;2023-06-10T06:22:35;6.90;;;6.30;;
1414;SDS011;702;49.466;11.086;2023-06-10T06:25:03;6.57;;;6.07;;
1414;SDS011;702;49.466;11.086;2023-06-10T06:27:31;7.90;;;6.77;;
1414;SDS011;702;49.466;11.086;2023-06-10T06:29:59;6.30;;;5.80;;
1414;SDS011;702;49.466;11.086;2023-06-10T06:32:27;6.63;;;5.93;;
1414;SDS011;702;49.466;11.086;2023-06-10T06:34:55;6.40;;;5.80;;
1414;SDS011;702;49.466;11.086;2023-06-10T06:37:24;7.77;;;7.07;;
1414;SDS011;702;49.466;11.086;2023-06-10T06:39:52;7.17;;;6.57;;
1414;SDS011;702;49.466;11.086;2023-06-10T06:42:20;7.23;;;6.53;;
1414;SDS011;702;49.466;11.086;2023-06-10T06:44:48;6.70;;;6.00;;
1414;SDS011;702;49.466;11.086;2023-06-10T06:47:16;6.70;;;6.00;;
1414;SDS011;702;49.466;11.086;2023-06-10T06:49:44;6.87;;;6.07;;
1414;SDS011;702;49.466;11.086;2023-06-10T06:52:12;7.23;;;6.03;;
1414;SDS011;702;49.466;11.086;2023-06-10T06:54:39;7.73;;;7.03;;
1414;SDS011;702;49.466;11.086;2023-06-10T06:57:07;6.37;;;5.77;;
1414;SDS011;702;49.466;11.086;2023-06-10T06:59:34;5.90;;;5.40;;
1414;SDS011;702;49.466;11.086;2023-06-10T07:02:02;5.83;;;5.43;;
1414;SDS011;702;49.466;11.086;2023-06-10T07:04:31;6.63;;;6.03;;
1414;SDS011;702;49.466;11.086;2023-06-10T07:06:58;6.60;;;5.90;;
1414;SDS011;702;49.466;11.086;2023-06-10T07:09:25;6.10;;;5.47;;
1414;SDS011;702;49.466;11.086;2023-06-10T07:11:53;6.37;;;5.77;;
1414;SDS011;702;49.466;11.086;2023-06-10T07:14:20;6.77;;;6.17;;
1414;SDS011;702;49.466;11.086;2023-06-10T07:16:47;6.17;;;5.60;;
1414;SDS011;702;49.466;11.086;2023-06-10T07:19:15;5.73;;;5.20;;
1414;SDS011;702;49.466;11.086;2023-06-10T07:21:44;5.90;;;5.50;;
1414;SDS011;702;49.466;11.086;2023-06-10T07:24:11;6.23;;;5.73;;
1414;SDS011;702;49.466;11.086;2023-06-10T07:26:38;6.13;;;5.63;;
1414;SDS011;702;49.466;11.086;2023-06-10T07:29:06;5.73;;;5.30;;
1414;SDS011;702;49.466;11.086;2023-06-10T07:31:33;6.37;;;5.77;;
1414;SDS011;702;49.466;11.086;2023-06-10T07:34:01;7.10;;;6.50;;
1414;SDS011;702;49.466;11.086;2023-06-10T07:36:28;5.77;;;5.27;;
1414;SDS011;702;49.466;11.086;2023-06-10T07:38:57;6.50;;;5.90;;
1414;SDS011;702;49.466;11.086;2023-06-10T07:41:24;5.73;;;5.13;;
1414;SDS011;702;49.466;11.086;2023-06-10T07:43:52;7.93;;;5.20;;
1414;SDS011;702;49.466;11.086;2023-06-10T07:46:23;6.70;;;6.20;;
1414;SDS011;702;49.466;11.086;2023-06-10T07:48:53;6.00;;;5.50;;
1414;SDS011;702;49.466;11.086;2023-06-10T07:51:20;6.77;;;6.17;;
1414;SDS011;702;49.466;11.086;2023-06-10T07:53:48;6.03;;;5.53;;
1414;SDS011;702;49.466;11.086;2023-06-10T07:56:17;5.20;;;4.80;;
1414;SDS011;702;49.466;11.086;2023-06-10T07:58:45;5.87;;;5.27;;
1414;SDS011;702;49.466;11.086;2023-06-10T08:01:13;5.60;;;5.10;;
1414;SDS011;702;49.466;11.086;2023-06-10T08:03:40;5.20;;;4.80;;
1414;SDS011;702;49.466;11.086;2023-06-10T08:06:07;5.23;;;4.83;;
1414;SDS011;702;49.466;11.086;2023-06-10T08:08:37;5.70;;;5.30;;
1414;SDS011;702;49.466;11.086;2023-06-10T08:11:07;5.67;;;5.17;;
1414;SDS011;702;49.466;11.086;2023-06-10T08:13:36;4.97;;;4.57;;
1414;SDS011;702;49.466;11.086;2023-06-10T08:16:03;5.00;;;4.60;;
1414;SDS011;702;49.466;11.086;2023-06-10T08:18:31;5.30;;;4.90;;
1414;SDS011;702;49.466;11.086;2023-06-10T08:20:58;5.33;;;4.83;;
1414;SDS011;702;49.466;11.086;2023-06-10T08:23:26;5.90;;;5.30;;
1414;SDS011;702;49.466;11.086;2023-06-10T08:25:53;5.10;;;4.70;;
1414;SDS011;702;49.466;11.086;2023-06-10T08:28:20;5.53;;;4.87;;
1414;SDS011;702;49.466;11.086;2023-06-10T08:30:48;5.13;;;4.73;;
1414;SDS011;702;49.466;11.086;2023-06-10T08:33:16;4.80;;;4.43;;
1414;SDS011;702;49.466;11.086;2023-06-10T08:35:43;5.07;;;4.67;;
1414;SDS011;702;49.466;11.086;2023-06-10T08:38:11;5.30;;;4.80;;
1414;SDS011;702;49.466;11.086;2023-06-10T08:40:38;4.67;;;4.33;;
1414;SDS011;702;49.466;11.086;2023-06-10T08:43:06;4.80;;;4.40;;
1414;SDS011;702;49.466;11.086;2023-06-10T08:45:35;4.53;;;4.23;;
1414;SDS011;702;49.466;11.086;2023-06-10T08:48:04;4.07;;;3.77;;
1414;SDS011;702;49.466;11.086;2023-06-10T08:50:34;4.27;;;3.87;;
1414;SDS011;702;49.466;11.086;2023-06-10T08:53:04;4.03;;;3.73;;
1414;SDS011;702;49.466;11.086;2023-06-10T08:55:33;4.37;;;3.97;;
1414;SDS011;702;49.466;11.086;2023-06-10T08:58:03;4.30;;;4.00;;
1414;SDS011;702;49.466;11.086;2023-06-10T09:00:31;3.97;;;3.63;;
1414;SDS011;702;49.466;11.086;2023-06-10T09:02:58;4.60;;;4.20;;
1414;SDS011;702;49.466;11.086;2023-06-10T09:05:29;3.93;;;3.40;;
1414;SDS011;702;49.466;11.086;2023-06-10T09:07:59;3.63;;;3.33;;
1414;SDS011;702;49.466;11.086;2023-06-10T09:10:28;3.83;;;3.53;;
1414;SDS011;702;49.466;11.086;2023-06-10T09:12:57;3.87;;;3.57;;
1414;SDS011;702;49.466;11.086;2023-06-10T09:15:24;3.90;;;3.60;;
1414;SDS011;702;49.466;11.086;2023-06-10T09:17:51;4.13;;;3.77;;
1414;SDS011;702;49.466;11.086;2023-06-10T09:20:19;3.80;;;3.50;;
1414;SDS011;702;49.466;11.086;2023-06-10T09:22:48;4.20;;;3.90;;
1414;SDS011;702;49.466;11.086;2023-06-10T09:25:15;4.07;;;3.67;;
1414;SDS011;702;49.466;11.086;2023-06-10T09:27:46;4.60;;;4.23;;
1414;SDS011;702;49.466;11.086;2023-06-10T09:30:25;4.20;;;3.90;;
1414;SDS011;702;49.466;11.086;2023-06-10T09:32:54;4.60;;;4.20;;
1414;SDS011;702;49.466;11.086;2023-06-10T09:35:22;4.40;;;4.10;;
1414;SDS011;702;49.466;11.086;2023-06-10T09:37:51;4.60;;;4.20;;
1414;SDS011;702;49.466;11.086;2023-06-10T09:40:20;4.07;;;3.77;;
1414;SDS011;702;49.466;11.086;2023-06-10T09:42:49;4.10;;;3.80;;
1414;SDS011;702;49.466;11.086;2023-06-10T09:45:21;4.30;;;4.00;;
1414;SDS011;702;49.466;11.086;2023-06-10T09:47:51;4.27;;;3.97;;
1414;SDS011;702;49.466;11.086;2023-06-10T09:50:19;4.57;;;4.17;;
1414;SDS011;702;49.466;11.086;2023-06-10T09:52:49;4.60;;;4.20;;
1414;SDS011;702;49.466;11.086;2023-06-10T09:55:18;4.40;;;4.10;;
1414;SDS011;702;49.466;11.086;2023-06-10T09:57:46;4.30;;;3.80;;
1414;SDS011;702;49.466;11.086;2023-06-10T10:00:16;4.80;;;4.13;;
1414;SDS011;702;49.466;11.086;2023-06-10T10:02:45;4.23;;;3.90;;
1414;SDS011;702;49.466;11.086;2023-06-10T10:05:14;4.90;;;4.50;;
1414;SDS011;702;49.466;11.086;2023-06-10T10:07:43;4.70;;;4.30;;
1414;SDS011;702;49.466;11.086;2023-06-10T10:10:13;4.00;;;3.70;;
1414;SDS011;702;49.466;11.086;2023-06-10T10:12:42;4.67;;;4.27;;
1414;SDS011;702;49.466;11.086;2023-06-10T10:15:14;4.90;;;4.50;;
1414;SDS011;702;49.466;11.086;2023-06-10T10:17:44;5.00;;;4.60;;
1414;SDS011;702;49.466;11.086;2023-06-10T10:20:18;4.90;;;4.50;;
1414;SDS011;702;49.466;11.086;2023-06-10T10:22:51;4.00;;;3.70;;
1414;SDS011;702;49.466;11.086;2023-06-10T10:25:25;4.00;;;3.70;;
1414;SDS011;702;49.466;11.086;2023-06-10T10:27:57;4.27;;;3.93;;
1414;SDS011;702;49.466;11.086;2023-06-10T10:30:29;3.93;;;3.70;;
1414;SDS011;702;49.466;11.086;2023-06-10T10:33:00;3.40;;;3.20;;
1414;SDS011;702;49.466;11.086;2023-06-10T10:35:35;4.30;;;3.90;;
1414;SDS011;702;49.466;11.086;2023-06-10T10:38:04;3.80;;;3.50;;
1414;SDS011;702;49.466;11.086;2023-06-10T10:40:34;4.00;;;3.70;;
1414;SDS011;702;49.466;11.086;2023-06-10T10:43:02;4.17;;;3.80;;
1414;SDS011;702;49.466;11.086;2023-06-10T10:45:29;4.40;;;4.10;;
1414;SDS011;702;49.466;11.086;2023-06-10T10:47:59;4.20;;;3.90;;
1414;SDS011;702;49.466;11.086;2023-06-10T10:50:35;4.10;;;3.80;;
1414;SDS011;702;49.466;11.086;2023-06-10T10:53:03;4.63;;;4.27;;
1414;SDS011;702;49.466;11.086;2023-06-10T10:55:32;4.00;;;3.80;;
1414;SDS011;702;49.466;11.086;2023-06-10T10:58:03;4.83;;;4.43;;
1414;SDS011;702;49.466;11.086;2023-06-10T11:00:32;3.93;;;3.63;;
1414;SDS011;702;49.466;11.086;2023-06-10T11:03:04;4.43;;;4.13;;
1414;SDS011;702;49.466;11.086;2023-06-10T11:05:37;3.90;;;3.60;;
1414;SDS011;702;49.466;11.086;2023-06-10T11:08:09;4.20;;;3.90;;
1414;SDS011;702;49.466;11.086;2023-06-10T11:10:39;5.17;;;4.77;;
1414;SDS011;702;49.466;11.086;2023-06-10T11:13:08;4.53;;;4.23;;
1414;SDS011;702;49.466;11.086;2023-06-10T11:15:38;4.87;;;4.47;;
1414;SDS011;702;49.466;11.086;2023-06-10T11:18:13;4.50;;;4.20;;
1414;SDS011;702;49.466;11.086;2023-06-10T11:20:56;4.23;;;3.93;;
1414;SDS011;702;49.466;11.086;2023-06-10T11:23:40;5.00;;;4.60;;
1414;SDS011;702;49.466;11.086;2023-06-10T11:26:10;5.33;;;4.50;;
1414;SDS011;702;49.466;11.086;2023-06-10T11:29:05;4.47;;;4.07;;
1414;SDS011;702;49.466;11.086;2023-06-10T11:31:40;4.63;;;4.23;;
1414;SDS011;702;49.466;11.086;2023-06-10T11:34:15;3.90;;;3.60;;
1414;SDS011;702;49.466;11.086;2023-06-10T11:36:49;3.97;;;3.67;;
1414;SDS011;702;49.466;11.086;2023-06-10T11:39:19;3.83;;;3.53;;
1414;SDS011;702;49.466;11.086;2023-06-10T11:41:52;3.13;;;2.90;;
1414;SDS011;702;49.466;11.086;2023-06-10T11:44:21;3.93;;;3.63;;
1414;SDS011;702;49.466;11.086;2023-06-10T11:46:48;3.90;;;3.60;;
1414;SDS011;702;49.466;11.086;2023-06-10T11:49:16;3.60;;;3.30;;
1414;SDS011;702;49.466;11.086;2023-06-10T11:51:44;3.20;;;3.00;;
1414;SDS011;702;49.466;11.086;2023-06-10T11:54:16;3.40;;;3.20;;
1414;SDS011;702;49.466;11.086;2023-06-10T11:56:44;3.50;;;3.30;;
1414;SDS011;702;49.466;11.086;2023-06-10T11:59:14;3.87;;;3.57;;
1414;SDS011;702;49.466;11.086;2023-06-10T12:01:42;3.73;;;3.43;;
1414;SDS011;702;49.466;11.086;2023-06-10T12:04:12;3.70;;;3.40;;
1414;SDS011;702;49.466;11.086;2023-06-10T12:06:41;3.40;;;3.20;;
1414;SDS011;702;49.466;11.086;2023-06-10T12:09:17;3.27;;;3.00;;
1414;SDS011;702;49.466;11.086;2023-06-10T12:11:48;3.40;;;3.20;;
1414;SDS011;702;49.466;11.086;2023-06-10T12:17:20;2.70;;;2.50;;
1414;SDS011;702;49.466;11.086;2023-06-10T12:19:49;3.40;;;3.10;;
1414;SDS011;702;49.466;11.086;2023-06-10T12:22:17;3.67;;;3.37;;
1414;SDS011;702;49.466;11.086;2023-06-10T12:24:46;3.00;;;2.80;;
1414;SDS011;702;49.466;11.086;2023-06-10T12:27:26;2.93;;;2.73;;
1414;SDS011;702;49.466;11.086;2023-06-10T12:29:56;3.20;;;3.00;;
1414;SDS011;702;49.466;11.086;2023-06-10T12:32:34;3.97;;;3.67;;
1414;SDS011;702;49.466;11.086;2023-06-10T12:35:03;3.60;;;3.30;;
1414;SDS011;702;49.466;11.086;2023-06-10T12:37:32;3.30;;;3.10;;
1414;SDS011;702;49.466;11.086;2023-06-10T12:40:00;4.00;;;3.70;;
1414;SDS011;702;49.466;11.086;2023-06-10T12:42:29;3.77;;;3.50;;
1414;SDS011;702;49.466;11.086;2023-06-10T12:45:00;3.47;;;3.27;;
1414;SDS011;702;49.466;11.086;2023-06-10T12:47:31;3.30;;;3.10;;
1414;SDS011;702;49.466;11.086;2023-06-10T12:50:00;3.40;;;3.10;;
1414;SDS011;702;49.466;11.086;2023-06-10T12:52:28;3.10;;;2.90;;
1414;SDS011;702;49.466;11.086;2023-06-10T12:54:56;3.50;;;3.20;;
1414;SDS011;702;49.466;11.086;2023-06-10T12:57:24;3.50;;;3.30;;
1414;SDS011;702;49.466;11.086;2023-06-10T12:59:52;3.30;;;3.07;;
1414;SDS011;702;49.466;11.086;2023-06-10T13:02:23;3.40;;;3.10;;
1414;SDS011;702;49.466;11.086;2023-06-10T13:04:50;3.10;;;2.90;;
1414;SDS011;702;49.466;11.086;2023-06-10T13:07:19;3.70;;;3.40;;
1414;SDS011;702;49.466;11.086;2023-06-10T13:09:47;3.70;;;3.40;;
1414;SDS011;702;49.466;11.086;2023-06-10T13:12:14;4.97;;;3.67;;
1414;SDS011;702;49.466;11.086;2023-06-10T13:14:43;3.30;;;3.00;;
1414;SDS011;702;49.466;11.086;2023-06-10T13:17:10;3.33;;;3.03;;
1414;SDS011;702;49.466;11.086;2023-06-10T13:19:39;2.90;;;2.70;;
1414;SDS011;702;49.466;11.086;2023-06-10T13:22:06;3.40;;;3.20;;
1414;SDS011;702;49.466;11.086;2023-06-10T13:24:33;3.57;;;3.27;;
1414;SDS011;702;49.466;11.086;2023-06-10T13:27:01;3.57;;;3.27;;
1414;SDS011;702;49.466;11.086;2023-06-10T13:29:28;3.10;;;2.90;;
1414;SDS011;702;49.466;11.086;2023-06-10T13:31:56;3.27;;;3.07;;
1414;SDS011;702;49.466;11.086;2023-06-10T13:34:23;2.80;;;2.60;;
1414;SDS011;702;49.466;11.086;2023-06-10T13:36:52;2.90;;;2.70;;
1414;SDS011;702;49.466;11.086;2023-06-10T13:39:19;2.50;;;2.30;;
1414;SDS011;702;49.466;11.086;2023-06-10T13:41:47;2.80;;;2.60;;
1414;SDS011;702;49.466;11.086;2023-06-10T13:44:14;2.87;;;2.67;;
1414;SDS011;702;49.466;11.086;2023-06-10T13:46:41;2.40;;;2.30;;
1414;SDS011;702;49.466;11.086;2023-06-10T13:49:09;2.27;;;2.17;;
1414;SDS011;702;49.466;11.086;2023-06-10T13:51:36;2.80;;;2.60;;
1414;SDS011;702;49.466;11.086;2023-06-10T13:54:05;2.93;;;2.63;;
1414;SDS011;702;49.466;11.086;2023-06-10T13:56:32;2.80;;;2.60;;
1414;SDS011;702;49.466;11.086;2023-06-10T13:59:03;3.50;;;3.20;;
1414;SDS011;702;49.466;11.086;2023-06-10T14:01:30;2.50;;;2.30;;
1414;SDS011;702;49.466;11.086;2023-06-10T14:03:57;2.90;;;2.70;;
1414;SDS011;702;49.466;11.086;2023-06-10T14:06:24;1.90;;;1.80;;
1414;SDS011;702;49.466;11.086;2023-06-10T14:08:52;2.83;;;2.63;;
1414;SDS011;702;49.466;11.086;2023-06-10T14:11:21;2.80;;;2.50;;
1414;SDS011;702;49.466;11.086;2023-06-10T14:13:48;3.20;;;3.00;;
1414;SDS011;702;49.466;11.086;2023-06-10T14:16:15;2.93;;;2.73;;
1414;SDS011;702;49.466;11.086;2023-06-10T14:18:42;2.80;;;2.60;;
1414;SDS011;702;49.466;11.086;2023-06-10T14:21:11;2.40;;;2.20;;
1414;SDS011;702;49.466;11.086;2023-06-10T14:23:38;2.80;;;2.60;;
1414;SDS011;702;49.466;11.086;2023-06-10T14:26:07;2.70;;;2.50;;
1414;SDS011;702;49.466;11.086;2023-06-10T14:28:35;3.90;;;3.07;;
1414;SDS011;702;49.466;11.086;2023-06-10T14:31:03;4.70;;;2.53;;
1414;SDS011;702;49.466;11.086;2023-06-10T14:33:30;2.30;;;2.20;;
1414;SDS011;702;49.466;11.086;2023-06-10T14:35:57;3.07;;;2.87;;
1414;SDS011;702;49.466;11.086;2023-06-10T14:38:25;2.20;;;2.07;;
1414;SDS011;702;49.466;11.086;2023-06-10T14:40:52;3.07;;;2.87;;
1414;SDS011;702;49.466;11.086;2023-06-10T14:43:19;2.50;;;2.40;;
1414;SDS011;702;49.466;11.086;2023-06-10T14:45:48;2.37;;;2.17;;
1414;SDS011;702;49.466;11.086;2023-06-10T14:48:16;2.93;;;2.63;;
1414;SDS011;702;49.466;11.086;2023-06-10T14:50:43;3.33;;;3.10;;
1414;SDS011;702;49.466;11.086;2023-06-10T14:53:15;2.20;;;2.10;;
1414;SDS011;702;49.466;11.086;2023-06-10T14:55:43;2.27;;;2.10;;
1414;SDS011;702;49.466;11.086;2023-06-10T14:58:11;2.80;;;2.60;;
1414;SDS011;702;49.466;11.086;2023-06-10T15:00:38;2.30;;;2.10;;
1414;SDS011;702;49.466;11.086;2023-06-10T15:03:07;2.23;;;2.10;;
1414;SDS011;702;49.466;11.086;2023-06-10T15:05:35;2.50;;;2.30;;
1414;SDS011;702;49.466;11.086;2023-06-10T15:08:03;2.70;;;2.50;;
1414;SDS011;702;49.466;11.086;2023-06-10T15:10:31;2.47;;;2.27;;
1414;SDS011;702;49.466;11.086;2023-06-10T15:12:59;2.70;;;2.50;;
1414;SDS011;702;49.466;11.086;2023-06-10T15:15:26;2.80;;;2.60;;
1414;SDS011;702;49.466;11.086;2023-06-10T15:17:53;2.90;;;2.70;;
1414;SDS011;702;49.466;11.086;2023-06-10T15:20:23;3.27;;;3.07;;
1414;SDS011;702;49.466;11.086;2023-06-10T15:22:51;3.20;;;3.00;;
1414;SDS011;702;49.466;11.086;2023-06-10T15:25:18;3.13;;;2.93;;
1414;SDS011;702;49.466;11.086;2023-06-10T15:27:46;3.43;;;3.23;;